createdAt,value
2023-02-06T00:00:52.636Z,1.55
2023-02-06T00:03:20.177Z,1.38
2023-02-06T00:05:54.806Z,1.73
2023-02-06T00:08:21.733Z,2.10
2023-02-06T00:10:48.320Z,1.10
2023-02-06T00:13:14.754Z,1.58
2023-02-06T00:15:41.272Z,1.40
2023-02-06T00:18:08.054Z,1.15
2023-02-06T00:20:34.547Z,1.20
2023-02-06T00:23:01.038Z,0.83
2023-02-06T00:25:27.527Z,1.10
2023-02-06T00:27:54.002Z,1.60
2023-02-06T00:30:20.814Z,1.70
2023-02-06T00:32:47.324Z,1.17
2023-02-06T00:35:13.813Z,1.53
2023-02-06T00:37:40.268Z,0.65
2023-02-06T00:40:08.038Z,1.60
2023-02-06T00:42:34.525Z,0.98
2023-02-06T00:45:00.992Z,2.20
2023-02-06T00:47:27.495Z,1.17
2023-02-06T00:49:53.969Z,1.42
2023-02-06T00:52:20.470Z,2.15
2023-02-06T00:54:46.950Z,1.83
2023-02-06T00:57:13.395Z,1.83
2023-02-06T00:59:39.848Z,1.43
2023-02-06T01:02:06.356Z,1.90
2023-02-06T01:04:32.925Z,1.65
2023-02-06T01:06:59.383Z,2.17
2023-02-06T01:09:25.955Z,1.33
2023-02-06T01:11:52.435Z,1.43
2023-02-06T01:14:18.877Z,1.98
2023-02-06T01:16:45.380Z,0.85
2023-02-06T01:19:11.853Z,1.77
2023-02-06T01:21:38.418Z,1.05
2023-02-06T01:24:05.154Z,2.20
2023-02-06T01:26:31.651Z,1.30
2023-02-06T01:28:58.244Z,2.03
2023-02-06T01:31:27.232Z,1.25
2023-02-06T01:33:55.521Z,1.08
2023-02-06T01:36:22.444Z,1.70
2023-02-06T01:38:49.435Z,1.77
2023-02-06T01:41:18.008Z,1.13
2023-02-06T01:43:47.863Z,1.33
2023-02-06T01:46:14.328Z,1.27
2023-02-06T01:48:48.650Z,1.57
2023-02-06T01:51:18.273Z,1.15
2023-02-06T01:53:48.508Z,1.08
2023-02-06T01:56:19.583Z,1.25
2023-02-06T01:58:51.242Z,1.48
2023-02-06T02:01:19.434Z,1.40
2023-02-06T02:03:49.152Z,1.67
2023-02-06T02:06:19.101Z,1.88
2023-02-06T02:08:47.770Z,1.52
2023-02-06T02:11:20.153Z,1.95
2023-02-06T02:13:47.157Z,0.80
2023-02-06T02:16:27.360Z,1.73
2023-02-06T02:19:04.596Z,1.20
2023-02-06T02:21:37.066Z,1.05
2023-02-06T02:24:40.912Z,1.00
2023-02-06T02:27:52.300Z,1.50
2023-02-06T02:30:41.747Z,1.40
2023-02-06T02:33:21.552Z,1.30
2023-02-06T02:35:53.665Z,1.10
2023-02-06T02:38:32.391Z,1.50
2023-02-06T02:41:16.881Z,1.13
2023-02-06T02:43:50.881Z,1.00
2023-02-06T02:46:29.046Z,0.80
2023-02-06T02:49:03.327Z,1.27
2023-02-06T02:51:29.928Z,1.30
2023-02-06T02:53:57.929Z,0.60
2023-02-06T02:56:26.059Z,0.75
2023-02-06T02:59:07.884Z,0.77
2023-02-06T03:01:52.327Z,1.40
2023-02-06T03:04:47.395Z,1.10
2023-02-06T03:07:19.721Z,1.13
2023-02-06T03:09:49.339Z,0.80
2023-02-06T03:12:21.672Z,0.90
2023-02-06T03:14:55.631Z,0.70
2023-02-06T03:17:33.717Z,0.85
2023-02-06T03:20:02.638Z,0.60
2023-02-06T03:22:31.930Z,0.70
2023-02-06T03:25:00.362Z,0.85
2023-02-06T03:27:28.482Z,0.47
2023-02-06T03:29:58.258Z,0.50
2023-02-06T03:32:38.035Z,0.73
2023-02-06T03:35:10.394Z,0.43
2023-02-06T03:37:37.687Z,0.70
2023-02-06T03:40:05.880Z,0.60
2023-02-06T03:42:35.997Z,0.68
2023-02-06T03:45:15.409Z,0.77
2023-02-06T03:47:43.831Z,1.63
2023-02-06T03:50:13.590Z,0.70
2023-02-06T03:52:45.337Z,0.85
2023-02-06T03:55:17.456Z,1.05
2023-02-06T03:57:47.597Z,0.70
2023-02-06T04:00:14.654Z,0.43
2023-02-06T04:02:42.619Z,0.50
2023-02-06T04:05:09.243Z,0.52
2023-02-06T04:07:36.316Z,0.30
2023-02-06T04:10:03.158Z,0.50
2023-02-06T04:12:29.624Z,0.47
2023-02-06T04:14:56.162Z,0.40
2023-02-06T04:17:40.518Z,0.85
2023-02-06T04:20:08.979Z,0.77
2023-02-06T04:22:35.566Z,0.63
2023-02-06T04:25:02.121Z,1.25
2023-02-06T04:27:28.579Z,0.63
2023-02-06T04:29:55.041Z,0.70
2023-02-06T04:32:21.733Z,0.80
2023-02-06T04:34:48.179Z,0.43
2023-02-06T04:37:14.631Z,0.47
2023-02-06T04:39:41.159Z,0.35
2023-02-06T04:42:07.819Z,0.73
2023-02-06T04:44:34.941Z,0.73
2023-02-06T04:47:01.599Z,0.50
2023-02-06T04:49:28.138Z,0.77
2023-02-06T04:51:54.645Z,0.68
2023-02-06T04:54:21.311Z,1.00
2023-02-06T04:56:47.822Z,0.73
2023-02-06T04:59:14.778Z,1.07
2023-02-06T05:01:41.568Z,0.70
2023-02-06T05:04:08.180Z,0.75
2023-02-06T05:06:34.861Z,0.50
2023-02-06T05:09:03.836Z,0.60
2023-02-06T05:11:30.439Z,0.50
2023-02-06T05:13:56.921Z,0.75
2023-02-06T05:16:23.408Z,0.50
2023-02-06T05:18:54.331Z,0.85
2023-02-06T05:21:21.211Z,0.50
2023-02-06T05:23:47.658Z,0.60
2023-02-06T05:26:14.192Z,0.90
2023-02-06T05:28:40.683Z,1.15
2023-02-06T05:31:07.628Z,0.50
2023-02-06T05:33:34.495Z,1.20
2023-02-06T05:36:05.763Z,1.10
2023-02-06T05:38:33.140Z,0.68
2023-02-06T05:40:59.716Z,0.50
2023-02-06T05:43:26.266Z,0.47
2023-02-06T05:45:52.735Z,0.95
2023-02-06T05:48:19.184Z,0.40
2023-02-06T05:50:49.905Z,0.77
2023-02-06T05:53:17.236Z,0.70
2023-02-06T05:55:43.796Z,0.40
2023-02-06T05:58:10.566Z,0.98
2023-02-06T06:00:37.000Z,0.70
2023-02-06T06:03:03.610Z,1.20
2023-02-06T06:05:30.158Z,0.63
2023-02-06T06:07:56.821Z,0.50
2023-02-06T06:10:23.558Z,0.85
2023-02-06T06:12:50.120Z,0.63
2023-02-06T06:15:16.625Z,0.90
2023-02-06T06:17:43.057Z,1.00
2023-02-06T06:20:10.068Z,0.80
2023-02-06T06:22:36.508Z,0.47
2023-02-06T06:25:03.792Z,0.70
2023-02-06T06:27:30.279Z,0.60
2023-02-06T06:29:56.726Z,0.73
2023-02-06T06:32:23.210Z,0.82
2023-02-06T06:34:49.694Z,0.93
2023-02-06T06:37:16.245Z,0.63
2023-02-06T06:39:42.735Z,0.88
2023-02-06T06:42:09.272Z,1.05
2023-02-06T06:44:35.758Z,0.40
2023-02-06T06:47:02.422Z,0.50
2023-02-06T06:49:29.157Z,0.60
2023-02-06T06:51:55.614Z,0.82
2023-02-06T06:54:22.848Z,0.82
2023-02-06T06:56:49.377Z,0.50
2023-02-06T06:59:15.885Z,0.60
2023-02-06T07:01:42.392Z,0.70
2023-02-06T07:04:08.893Z,0.70
2023-02-06T07:06:35.475Z,0.60
2023-02-06T07:09:02.068Z,0.40
2023-02-06T07:11:28.536Z,0.40
2023-02-06T07:13:54.983Z,0.90
2023-02-06T07:16:21.718Z,0.95
2023-02-06T07:18:48.257Z,0.50
2023-02-06T07:21:15.933Z,0.63
2023-02-06T07:23:42.648Z,1.20
2023-02-06T07:26:09.183Z,0.83
2023-02-06T07:28:35.708Z,0.60
2023-02-06T07:31:03.895Z,0.73
2023-02-06T07:33:30.770Z,0.50
2023-02-06T07:35:57.538Z,1.08
2023-02-06T07:38:24.601Z,0.57
2023-02-06T07:40:51.101Z,1.20
2023-02-06T07:43:17.616Z,1.00
2023-02-06T07:45:44.681Z,1.73
2023-02-06T07:48:11.530Z,1.13
2023-02-06T07:50:38.444Z,1.63
2023-02-06T07:53:05.015Z,1.27
2023-02-06T07:55:31.570Z,1.10
2023-02-06T07:57:58.098Z,0.80
2023-02-06T08:00:24.731Z,1.05
2023-02-06T08:02:51.712Z,0.93
2023-02-06T08:05:18.496Z,0.50
2023-02-06T08:07:45.230Z,0.88
2023-02-06T08:10:11.754Z,0.85
2023-02-06T08:12:38.245Z,0.70
2023-02-06T08:15:05.032Z,1.07
2023-02-06T08:17:31.554Z,0.95
2023-02-06T08:19:58.136Z,1.17
2023-02-06T08:22:24.600Z,0.70
2023-02-06T08:24:51.152Z,1.00
2023-02-06T08:27:17.618Z,0.90
2023-02-06T08:29:44.195Z,0.68
2023-02-06T08:32:10.994Z,0.63
2023-02-06T08:34:39.942Z,0.63
2023-02-06T08:37:07.302Z,0.80
2023-02-06T08:39:33.786Z,0.70
2023-02-06T08:42:00.340Z,1.45
2023-02-06T08:44:26.797Z,1.15
2023-02-06T08:47:04.627Z,0.98
2023-02-06T08:49:36.154Z,0.75
2023-02-06T08:52:02.721Z,0.80
2023-02-06T08:54:29.232Z,0.60
2023-02-06T08:57:00.971Z,0.95
2023-02-06T08:59:29.407Z,1.35
2023-02-06T09:01:55.911Z,0.90
2023-02-06T09:04:22.407Z,1.20
2023-02-06T09:06:49.265Z,0.82
2023-02-06T09:09:15.978Z,0.98
2023-02-06T09:11:43.179Z,0.93
2023-02-06T09:14:14.072Z,1.15
2023-02-06T09:16:40.838Z,1.27
2023-02-06T09:19:07.367Z,1.63
2023-02-06T09:21:35.627Z,1.33
2023-02-06T09:24:05.466Z,1.17
2023-02-06T09:26:53.427Z,2.45
2023-02-06T09:29:24.128Z,2.17
2023-02-06T09:31:50.650Z,1.63
2023-02-06T09:34:17.131Z,1.73
2023-02-06T09:36:43.643Z,2.67
2023-02-06T09:39:10.466Z,2.35
2023-02-06T09:41:36.948Z,2.13
2023-02-06T09:44:15.468Z,1.60
2023-02-06T09:47:14.241Z,2.50
2023-02-06T09:49:54.601Z,2.53
2023-02-06T09:52:30.020Z,2.30
2023-02-06T09:55:18.486Z,2.77
2023-02-06T09:57:55.021Z,2.38
2023-02-06T10:00:41.870Z,2.20
2023-02-06T10:03:45.233Z,2.20
2023-02-06T10:06:22.359Z,2.03
2023-02-06T10:08:57.419Z,1.97
2023-02-06T10:11:39.448Z,2.10
2023-02-06T10:14:29.760Z,2.08
2023-02-06T10:17:01.290Z,1.70
2023-02-06T10:19:50.266Z,2.50
2023-02-06T10:22:38.604Z,2.43
2023-02-06T10:25:22.370Z,1.95
2023-02-06T10:27:57.932Z,2.22
2023-02-06T10:30:52.447Z,1.67
2023-02-06T10:33:40.769Z,1.90
2023-02-06T10:36:25.475Z,1.90
2023-02-06T10:39:10.577Z,2.42
2023-02-06T10:41:42.981Z,1.90
2023-02-06T10:44:18.627Z,2.17
2023-02-06T10:46:48.725Z,2.00
2023-02-06T10:49:35.823Z,1.70
2023-02-06T10:52:22.230Z,2.05
2023-02-06T10:54:56.807Z,2.78
2023-02-06T10:57:28.539Z,2.35
2023-02-06T10:59:59.522Z,1.85
2023-02-06T11:03:06.550Z,2.30
2023-02-06T11:05:34.322Z,1.42
2023-02-06T11:08:25.509Z,1.55
2023-02-06T11:10:52.455Z,1.77
2023-02-06T11:13:26.778Z,1.60
2023-02-06T11:16:03.010Z,1.53
2023-02-06T11:18:41.832Z,1.92
2023-02-06T11:21:10.849Z,1.63
2023-02-06T11:23:37.360Z,1.70
2023-02-06T11:26:16.930Z,1.10
2023-02-06T11:28:52.333Z,1.90
2023-02-06T11:31:21.634Z,1.58
2023-02-06T11:33:54.516Z,1.45
2023-02-06T11:36:38.567Z,2.10
2023-02-06T11:39:32.556Z,1.70
2023-02-06T11:42:05.727Z,1.73
2023-02-06T11:44:39.358Z,1.27
2023-02-06T11:47:29.471Z,1.15
2023-02-06T11:49:57.727Z,0.80
2023-02-06T11:52:33.290Z,1.20
2023-02-06T11:55:02.502Z,1.63
2023-02-06T11:57:32.305Z,0.90
2023-02-06T12:00:20.751Z,1.10
2023-02-06T12:02:51.725Z,0.68
2023-02-06T12:05:20.496Z,1.88
2023-02-06T12:07:53.191Z,1.40
2023-02-06T12:10:23.581Z,1.02
2023-02-06T12:13:08.712Z,1.25
2023-02-06T12:15:47.847Z,0.98
2023-02-06T12:18:34.575Z,1.17
2023-02-06T12:21:20.901Z,1.13
2023-02-06T12:23:53.263Z,1.40
2023-02-06T12:26:23.006Z,1.35
2023-02-06T12:29:11.973Z,0.90
2023-02-06T12:31:43.722Z,1.15
2023-02-06T12:34:20.526Z,1.60
2023-02-06T12:37:08.834Z,0.77
2023-02-06T12:39:35.427Z,1.00
2023-02-06T12:42:20.105Z,0.70
2023-02-06T12:45:03.469Z,1.45
2023-02-06T12:47:35.032Z,0.80
2023-02-06T12:50:10.847Z,1.10
2023-02-06T12:53:02.564Z,0.70
2023-02-06T12:55:31.783Z,1.02
2023-02-06T12:57:58.780Z,0.93
2023-02-06T13:00:40.390Z,1.10
2023-02-06T13:03:25.524Z,0.50
2023-02-06T13:05:56.158Z,0.73
2023-02-06T13:08:48.249Z,1.13
2023-02-06T13:11:32.551Z,0.57
2023-02-06T13:14:00.829Z,0.57
2023-02-06T13:16:50.795Z,0.80
2023-02-06T13:19:40.271Z,1.13
2023-02-06T13:22:09.682Z,0.63
2023-02-06T13:24:37.918Z,0.73
2023-02-06T13:27:23.986Z,0.82
2023-02-06T13:29:53.821Z,0.98
2023-02-06T13:32:29.859Z,0.85
2023-02-06T13:35:07.213Z,1.45
2023-02-06T13:37:41.132Z,0.70
2023-02-06T13:40:26.609Z,0.98
2023-02-06T13:43:05.175Z,0.85
2023-02-06T13:45:41.641Z,0.82
2023-02-06T13:48:36.115Z,1.40
2023-02-06T13:51:08.738Z,1.50
2023-02-06T13:54:11.931Z,0.63
2023-02-06T13:56:47.339Z,0.70
2023-02-06T13:59:25.161Z,1.02
2023-02-06T14:01:52.744Z,0.70
2023-02-06T14:04:25.675Z,1.27
2023-02-06T14:07:21.853Z,1.57
2023-02-06T14:10:05.176Z,1.23
2023-02-06T14:12:57.706Z,1.25
2023-02-06T14:15:39.488Z,0.75
2023-02-06T14:18:24.692Z,1.23
2023-02-06T14:21:14.931Z,1.00
2023-02-06T14:24:23.089Z,0.70
2023-02-06T14:26:55.792Z,1.00
2023-02-06T14:29:34.238Z,1.02
2023-02-06T14:32:22.550Z,0.70
2023-02-06T14:35:17.001Z,1.03
2023-02-06T14:37:47.840Z,1.42
2023-02-06T14:40:25.165Z,1.25
2023-02-06T14:42:56.649Z,0.80
2023-02-06T14:45:31.983Z,1.00
2023-02-06T14:48:03.488Z,0.93
2023-02-06T14:50:32.490Z,0.90
2023-02-06T14:53:09.934Z,0.65
2023-02-06T14:55:39.985Z,0.80
2023-02-06T14:58:20.063Z,1.02
2023-02-06T15:00:46.612Z,0.77
2023-02-06T15:03:19.127Z,0.90
2023-02-06T15:05:45.808Z,0.90
2023-02-06T15:08:19.008Z,0.90
2023-02-06T15:10:46.765Z,1.17
2023-02-06T15:13:24.433Z,1.25
2023-02-06T15:15:56.899Z,1.02
2023-02-06T15:18:23.664Z,1.10
2023-02-06T15:20:59.903Z,0.75
2023-02-06T15:24:01.135Z,0.80
2023-02-06T15:26:42.977Z,0.60
2023-02-06T15:29:23.217Z,1.35
2023-02-06T15:31:53.070Z,1.20
2023-02-06T15:34:22.843Z,0.95
2023-02-06T15:36:49.748Z,0.90
2023-02-06T15:39:18.319Z,1.07
2023-02-06T15:41:48.193Z,0.98
2023-02-06T15:44:27.704Z,1.23
2023-02-06T15:46:56.161Z,1.23
2023-02-06T15:49:44.372Z,1.10
2023-02-06T15:52:13.394Z,1.30
2023-02-06T15:54:44.965Z,1.25
2023-02-06T15:57:20.493Z,1.23
2023-02-06T15:59:47.464Z,1.23
2023-02-06T16:02:25.551Z,1.20
2023-02-06T16:04:53.935Z,1.77
2023-02-06T16:07:30.700Z,0.70
2023-02-06T16:10:09.224Z,1.02
2023-02-06T16:12:42.728Z,1.38
2023-02-06T16:15:37.783Z,1.33
2023-02-06T16:18:31.917Z,1.20
2023-02-06T16:21:16.723Z,0.82
2023-02-06T16:24:03.306Z,1.00
2023-02-06T16:26:32.349Z,1.20
2023-02-06T16:29:15.004Z,0.90
2023-02-06T16:31:43.718Z,1.27
2023-02-06T16:34:36.618Z,0.80
2023-02-06T16:37:10.671Z,0.90
2023-02-06T16:39:37.253Z,0.80
2023-02-06T16:42:03.850Z,1.00
2023-02-06T16:44:43.822Z,1.53
2023-02-06T16:47:14.199Z,0.93
2023-02-06T16:49:40.764Z,1.88
2023-02-06T16:52:07.864Z,1.23
2023-02-06T16:54:34.649Z,0.90
2023-02-06T16:57:16.057Z,0.83
2023-02-06T16:59:42.579Z,0.70
2023-02-06T17:02:11.939Z,0.85
2023-02-06T17:04:38.793Z,0.80
2023-02-06T17:07:10.134Z,1.10
2023-02-06T17:09:36.648Z,0.87
2023-02-06T17:12:03.270Z,0.98
2023-02-06T17:14:29.831Z,1.35
2023-02-06T17:16:56.380Z,1.40
2023-02-06T17:19:22.954Z,1.48
2023-02-06T17:21:49.452Z,1.07
2023-02-06T17:24:15.906Z,1.45
2023-02-06T17:26:42.361Z,1.38
2023-02-06T17:29:12.515Z,1.48
2023-02-06T17:31:38.994Z,1.20
2023-02-06T17:34:05.537Z,0.90
2023-02-06T17:36:33.298Z,2.00
2023-02-06T17:39:00.319Z,4.00
2023-02-06T17:41:27.666Z,2.92
2023-02-06T17:43:54.188Z,2.95
2023-02-06T17:46:20.832Z,2.20
2023-02-06T17:48:47.357Z,2.30
2023-02-06T17:51:13.826Z,2.17
2023-02-06T17:53:40.561Z,1.63
2023-02-06T17:56:09.163Z,2.08
2023-02-06T17:58:35.645Z,2.33
2023-02-06T18:01:02.115Z,3.70
2023-02-06T18:03:28.766Z,5.35
2023-02-06T18:05:59.933Z,5.43
2023-02-06T18:08:26.976Z,5.63
2023-02-06T18:10:53.448Z,5.67
2023-02-06T18:13:21.199Z,6.30
2023-02-06T18:15:56.849Z,5.85
2023-02-06T18:18:24.865Z,5.55
2023-02-06T18:20:52.301Z,6.25
2023-02-06T18:23:21.762Z,3.33
2023-02-06T18:25:48.454Z,3.63
2023-02-06T18:28:16.500Z,4.32
2023-02-06T18:30:43.074Z,3.70
2023-02-06T18:33:12.634Z,2.58
2023-02-06T18:35:40.835Z,3.93
2023-02-06T18:38:09.832Z,5.47
2023-02-06T18:40:38.531Z,8.20
2023-02-06T18:43:06.412Z,6.80
2023-02-06T18:45:34.551Z,2.78
2023-02-06T18:48:06.189Z,2.73
2023-02-06T18:50:33.639Z,2.78
2023-02-06T18:53:00.247Z,2.58
2023-02-06T18:55:27.449Z,2.72
2023-02-06T18:57:54.423Z,3.03
2023-02-06T19:00:23.120Z,3.27
2023-02-06T19:02:50.188Z,4.00
2023-02-06T19:05:16.813Z,3.53
2023-02-06T19:07:43.381Z,1.95
2023-02-06T19:10:12.872Z,1.70
2023-02-06T19:12:39.552Z,1.63
2023-02-06T19:15:06.613Z,2.30
2023-02-06T19:17:34.273Z,1.92
2023-02-06T19:20:00.719Z,2.53
2023-02-06T19:22:27.267Z,3.47
2023-02-06T19:24:54.005Z,2.10
2023-02-06T19:27:21.390Z,1.88
2023-02-06T19:29:48.684Z,1.25
2023-02-06T19:32:15.209Z,1.63
2023-02-06T19:34:41.989Z,1.52
2023-02-06T19:37:10.023Z,2.13
2023-02-06T19:39:40.229Z,2.03
2023-02-06T19:42:15.555Z,2.38
2023-02-06T19:44:42.640Z,2.03
2023-02-06T19:47:09.427Z,1.83
2023-02-06T19:49:36.419Z,2.00
2023-02-06T19:52:03.501Z,2.42
2023-02-06T19:54:30.152Z,2.08
2023-02-06T19:56:56.771Z,2.83
2023-02-06T19:59:28.232Z,4.00
2023-02-06T20:01:55.986Z,8.67
2023-02-06T20:04:25.744Z,7.25
2023-02-06T20:06:52.569Z,7.53
2023-02-06T20:09:20.510Z,7.47
2023-02-06T20:11:49.112Z,6.75
2023-02-06T20:14:17.451Z,10.27
2023-02-06T20:16:44.850Z,9.07
2023-02-06T20:19:18.583Z,8.57
2023-02-06T20:21:48.359Z,16.90
2023-02-06T20:24:20.619Z,16.13
2023-02-06T20:26:49.111Z,8.77
2023-02-06T20:29:21.624Z,6.70
2023-02-06T20:31:49.290Z,6.40
2023-02-06T20:34:16.752Z,4.25
2023-02-06T20:36:43.244Z,3.53
2023-02-06T20:39:11.837Z,5.50
2023-02-06T20:41:39.191Z,7.90
2023-02-06T20:44:05.863Z,6.43
2023-02-06T20:46:35.382Z,3.42
2023-02-06T20:49:06.263Z,2.67
2023-02-06T20:51:32.712Z,2.80
2023-02-06T20:53:59.281Z,2.10
2023-02-06T20:56:26.254Z,2.05
2023-02-06T20:58:53.221Z,2.10
2023-02-06T21:01:23.046Z,4.00
2023-02-06T21:03:51.292Z,3.73
2023-02-06T21:06:18.246Z,2.92
2023-02-06T21:08:50.240Z,3.35
2023-02-06T21:11:17.122Z,5.38
2023-02-06T21:13:43.718Z,6.85
2023-02-06T21:16:13.462Z,7.10
2023-02-06T21:18:42.471Z,8.77
2023-02-06T21:21:11.657Z,7.90
2023-02-06T21:23:39.463Z,7.22
2023-02-06T21:26:07.025Z,5.55
2023-02-06T21:28:35.099Z,4.10
2023-02-06T21:31:06.565Z,4.65
2023-02-06T21:33:34.618Z,3.67
2023-02-06T21:36:02.922Z,4.05
2023-02-06T21:38:30.056Z,5.22
2023-02-06T21:40:58.243Z,4.00
2023-02-06T21:43:24.733Z,3.38
2023-02-06T21:45:51.286Z,2.65
2023-02-06T21:48:17.777Z,4.72
2023-02-06T21:50:44.855Z,6.97
2023-02-06T21:53:11.736Z,4.73
2023-02-06T21:55:45.547Z,4.35
2023-02-06T21:58:14.645Z,3.50
2023-02-06T22:00:44.282Z,12.70
2023-02-06T22:03:11.861Z,13.10
2023-02-06T22:05:39.091Z,25.77
2023-02-06T22:08:06.105Z,24.77
2023-02-06T22:10:35.797Z,17.58
2023-02-06T22:13:02.859Z,9.95
2023-02-06T22:15:29.380Z,3.80
2023-02-06T22:17:55.847Z,2.93
2023-02-06T22:20:22.343Z,2.97
2023-02-06T22:22:48.870Z,3.58
2023-02-06T22:25:15.388Z,5.15
2023-02-06T22:27:41.975Z,5.35
2023-02-06T22:30:09.156Z,8.97
2023-02-06T22:32:37.538Z,12.75
2023-02-06T22:35:04.812Z,10.80
2023-02-06T22:37:32.260Z,9.85
2023-02-06T22:39:58.791Z,9.48
2023-02-06T22:42:25.336Z,7.70
2023-02-06T22:44:51.847Z,6.25
2023-02-06T22:47:18.294Z,6.60
2023-02-06T22:49:44.920Z,7.07
2023-02-06T22:52:34.430Z,6.20
2023-02-06T22:55:03.169Z,5.50
2023-02-06T22:57:30.132Z,6.50
2023-02-06T22:59:56.605Z,6.72
2023-02-06T23:02:23.071Z,7.45
2023-02-06T23:04:49.636Z,6.53
2023-02-06T23:07:16.098Z,6.17
2023-02-06T23:09:42.566Z,6.30
2023-02-06T23:12:11.313Z,5.78
2023-02-06T23:14:37.877Z,5.63
2023-02-06T23:17:04.373Z,5.72
2023-02-06T23:19:31.316Z,5.83
2023-02-06T23:21:58.031Z,4.13
2023-02-06T23:24:24.535Z,3.92
2023-02-06T23:26:53.238Z,3.50
2023-02-06T23:29:21.167Z,2.90
2023-02-06T23:31:48.481Z,2.87
2023-02-06T23:34:17.294Z,2.85
2023-02-06T23:36:44.543Z,3.10
2023-02-06T23:39:12.008Z,3.22
2023-02-06T23:41:38.891Z,4.47
2023-02-06T23:44:07.407Z,4.67
2023-02-06T23:46:36.228Z,4.10
2023-02-06T23:49:03.222Z,4.57
2023-02-06T23:51:29.787Z,4.07
2023-02-06T23:53:56.300Z,3.55
2023-02-06T23:56:31.361Z,3.77
2023-02-06T23:58:59.359Z,3.85
